createdAt,value
2023-01-19T00:02:00.425Z,-1.12
2023-01-19T00:04:30.060Z,-1.12
2023-01-19T00:07:03.372Z,-1.11
2023-01-19T00:09:33.777Z,-1.09
2023-01-19T00:12:03.795Z,-1.10
2023-01-19T00:14:33.782Z,-1.12
2023-01-19T00:17:05.429Z,-1.11
2023-01-19T00:19:35.144Z,-1.11
2023-01-19T00:22:06.305Z,-1.12
2023-01-19T00:24:36.127Z,-1.07
2023-01-19T00:27:06.155Z,-1.05
2023-01-19T00:29:36.003Z,-1.03
2023-01-19T00:32:08.015Z,-1.03
2023-01-19T00:34:39.893Z,-0.99
2023-01-19T00:37:09.891Z,-0.99
2023-01-19T00:39:39.593Z,-0.95
2023-01-19T00:42:27.397Z,-0.95
2023-01-19T00:44:57.372Z,-0.92
2023-01-19T00:47:28.853Z,-0.86
2023-01-19T00:49:58.766Z,-0.83
2023-01-19T00:52:28.875Z,-0.88
2023-01-19T00:54:58.624Z,-0.88
2023-01-19T00:57:29.830Z,-0.90
2023-01-19T00:59:59.505Z,-0.89
2023-01-19T01:02:31.047Z,-0.88
2023-01-19T01:05:03.060Z,-0.88
2023-01-19T01:07:35.413Z,-0.79
2023-01-19T01:10:05.052Z,-0.72
2023-01-19T01:12:35.158Z,-0.78
2023-01-19T01:15:05.415Z,-0.80
2023-01-19T01:17:37.387Z,-0.83
2023-01-19T01:20:07.579Z,-0.87
2023-01-19T01:22:39.425Z,-0.88
2023-01-19T01:25:09.385Z,-0.87
2023-01-19T01:27:39.535Z,-0.90
2023-01-19T01:30:10.187Z,-0.92
2023-01-19T01:32:41.871Z,-0.92
2023-01-19T01:35:11.736Z,-0.91
2023-01-19T01:37:42.960Z,-0.90
2023-01-19T01:40:14.384Z,-0.86
2023-01-19T01:42:44.736Z,-0.86
2023-01-19T01:45:26.154Z,-0.86
2023-01-19T01:47:59.095Z,-0.84
2023-01-19T01:50:30.334Z,-0.74
2023-01-19T01:53:06.639Z,-0.75
2023-01-19T01:55:39.795Z,-0.80
2023-01-19T01:58:11.531Z,-0.72
2023-01-19T02:00:55.574Z,-0.51
2023-01-19T02:03:27.592Z,-0.56
2023-01-19T02:05:59.513Z,-0.59
2023-01-19T02:08:49.859Z,-0.61
2023-01-19T02:11:36.720Z,-0.59
2023-01-19T02:14:07.463Z,-0.44
2023-01-19T02:16:38.296Z,-0.44
2023-01-19T02:19:14.663Z,-0.40
2023-01-19T02:21:48.285Z,-0.37
2023-01-19T02:24:20.079Z,-0.35
2023-01-19T02:26:50.456Z,-0.32
2023-01-19T02:29:21.734Z,-0.34
2023-01-19T02:31:51.475Z,-0.35
2023-01-19T02:34:22.994Z,-0.42
2023-01-19T02:36:54.572Z,-0.48
2023-01-19T02:39:29.584Z,-0.50
2023-01-19T02:42:08.841Z,-0.54
2023-01-19T02:44:39.540Z,-0.58
2023-01-19T02:47:09.404Z,-0.60
2023-01-19T02:49:39.475Z,-0.59
2023-01-19T02:52:15.439Z,-0.62
2023-01-19T02:55:10.728Z,-0.67
2023-01-19T02:57:54.775Z,-0.71
2023-01-19T03:00:29.688Z,-0.74
2023-01-19T03:03:07.965Z,-0.78
2023-01-19T03:05:51.048Z,-0.80
2023-01-19T03:08:25.185Z,-0.84
2023-01-19T03:11:02.414Z,-0.83
2023-01-19T03:13:34.836Z,-0.83
2023-01-19T03:16:08.076Z,-0.84
2023-01-19T03:18:38.975Z,-0.83
2023-01-19T03:21:09.431Z,-0.85
2023-01-19T03:23:40.232Z,-0.85
2023-01-19T03:26:14.715Z,-0.84
2023-01-19T03:28:46.012Z,-0.76
2023-01-19T03:31:18.163Z,-0.76
2023-01-19T03:33:49.827Z,-0.73
2023-01-19T03:36:21.999Z,-0.71
2023-01-19T03:38:52.621Z,-0.71
2023-01-19T03:41:25.585Z,-0.69
2023-01-19T03:43:57.032Z,-0.69
2023-01-19T03:46:27.816Z,-0.69
2023-01-19T03:48:58.924Z,-0.68
2023-01-19T03:51:29.114Z,-0.65
2023-01-19T03:53:58.732Z,-0.63
2023-01-19T03:56:30.262Z,-0.56
2023-01-19T03:59:00.023Z,-0.55
2023-01-19T04:01:30.186Z,-0.55
2023-01-19T04:03:59.890Z,-0.49
2023-01-19T04:06:29.792Z,-0.42
2023-01-19T04:08:59.412Z,-0.40
2023-01-19T04:11:31.885Z,-0.40
2023-01-19T04:14:01.949Z,-0.40
2023-01-19T04:16:32.174Z,-0.39
2023-01-19T04:19:01.840Z,-0.40
2023-01-19T04:21:31.914Z,-0.40
2023-01-19T04:24:01.631Z,-0.43
2023-01-19T04:26:32.981Z,-0.45
2023-01-19T04:29:02.819Z,-0.47
2023-01-19T04:31:33.247Z,-0.49
2023-01-19T04:34:02.931Z,-0.55
2023-01-19T04:36:32.913Z,-0.61
2023-01-19T04:39:02.619Z,-0.68
2023-01-19T04:41:34.024Z,-0.78
2023-01-19T04:44:03.947Z,-1.20
2023-01-19T04:46:34.109Z,-0.93
2023-01-19T04:49:04.091Z,-1.00
2023-01-19T04:51:34.589Z,-1.08
2023-01-19T04:54:04.452Z,-1.18
2023-01-19T04:56:35.950Z,-1.32
2023-01-19T04:59:05.661Z,-1.37
2023-01-19T05:01:35.690Z,-1.47
2023-01-19T05:04:07.232Z,-1.55
2023-01-19T05:06:37.571Z,-1.68
2023-01-19T05:09:09.355Z,-1.75
2023-01-19T05:11:40.930Z,-1.82
2023-01-19T05:14:10.480Z,-1.86
2023-01-19T05:16:40.448Z,-1.97
2023-01-19T05:19:10.071Z,-2.03
2023-01-19T05:21:40.272Z,-2.11
2023-01-19T05:24:10.263Z,-2.21
2023-01-19T05:26:41.690Z,-2.26
2023-01-19T05:29:12.243Z,-2.30
2023-01-19T05:31:42.291Z,-2.31
2023-01-19T05:34:12.650Z,-2.37
2023-01-19T05:36:43.077Z,-2.40
2023-01-19T05:39:12.633Z,-2.43
2023-01-19T05:41:45.765Z,-2.41
2023-01-19T05:44:15.487Z,-2.54
2023-01-19T05:46:45.565Z,-2.58
2023-01-19T05:49:16.331Z,-2.59
2023-01-19T05:51:46.740Z,-2.69
2023-01-19T05:54:16.873Z,-2.67
2023-01-19T05:56:48.324Z,-2.70
2023-01-19T05:59:24.485Z,-2.75
2023-01-19T06:01:54.844Z,-2.79
2023-01-19T06:04:24.723Z,-2.84
2023-01-19T06:06:54.653Z,-2.78
2023-01-19T06:09:24.350Z,-3.54
2023-01-19T06:11:56.820Z,-2.90
2023-01-19T06:14:26.845Z,-2.90
2023-01-19T06:16:56.808Z,-2.93
2023-01-19T06:19:26.550Z,-2.92
2023-01-19T06:21:57.492Z,-2.96
2023-01-19T06:24:28.252Z,-3.00
2023-01-19T06:27:01.479Z,-3.10
2023-01-19T06:29:31.190Z,-3.06
2023-01-19T06:32:01.296Z,-3.06
2023-01-19T06:34:30.980Z,-3.01
2023-01-19T06:37:01.250Z,-3.00
2023-01-19T06:39:31.031Z,-3.07
2023-01-19T06:42:02.445Z,-3.12
2023-01-19T06:44:32.244Z,-3.19
2023-01-19T06:47:15.606Z,-3.15
2023-01-19T06:49:45.953Z,-3.08
2023-01-19T06:52:17.831Z,-3.08
2023-01-19T06:54:49.753Z,-3.11
2023-01-19T06:57:21.377Z,-3.13
2023-01-19T06:59:51.140Z,-3.14
2023-01-19T07:02:27.854Z,-3.11
2023-01-19T07:04:59.228Z,-3.08
2023-01-19T07:07:30.183Z,-3.20
2023-01-19T07:09:59.861Z,-3.19
2023-01-19T07:12:31.901Z,-3.17
2023-01-19T07:15:01.782Z,-3.22
2023-01-19T07:17:31.935Z,-3.57
2023-01-19T07:20:02.072Z,-3.26
2023-01-19T07:22:32.136Z,-3.31
2023-01-19T07:25:02.020Z,-3.24
2023-01-19T07:27:33.622Z,-3.20
2023-01-19T07:30:04.865Z,-3.13
2023-01-19T07:32:35.101Z,-3.08
2023-01-19T07:35:05.403Z,-3.06
2023-01-19T07:37:35.603Z,-2.96
2023-01-19T07:40:05.666Z,-2.87
2023-01-19T07:42:38.336Z,-2.75
2023-01-19T07:45:08.561Z,-2.66
2023-01-19T07:47:38.732Z,-2.62
2023-01-19T07:50:08.492Z,-2.54
2023-01-19T07:52:38.511Z,-2.46
2023-01-19T07:55:08.914Z,-2.37
2023-01-19T07:57:41.771Z,-2.29
2023-01-19T08:00:12.132Z,-2.21
2023-01-19T08:02:45.252Z,-2.16
2023-01-19T08:05:15.700Z,-2.15
2023-01-19T08:07:46.594Z,-2.12
2023-01-19T08:10:16.943Z,-2.12
2023-01-19T08:12:48.781Z,-2.15
2023-01-19T08:15:18.710Z,-2.13
2023-01-19T08:17:56.463Z,-2.17
2023-01-19T08:20:26.465Z,-2.21
2023-01-19T08:23:00.691Z,-2.24
2023-01-19T08:25:34.106Z,-2.20
2023-01-19T08:28:06.887Z,-2.15
2023-01-19T08:30:37.874Z,-2.07
2023-01-19T08:33:08.743Z,-2.01
2023-01-19T08:35:40.381Z,-2.01
2023-01-19T08:38:11.643Z,-1.98
2023-01-19T08:40:42.357Z,-1.94
2023-01-19T08:43:14.781Z,-1.92
2023-01-19T08:45:46.894Z,-1.91
2023-01-19T08:48:17.668Z,-1.92
2023-01-19T08:50:47.986Z,-1.89
2023-01-19T08:53:18.517Z,-1.83
2023-01-19T08:55:48.572Z,-1.81
2023-01-19T08:58:21.411Z,-1.71
2023-01-19T09:00:52.902Z,-1.65
2023-01-19T09:03:23.140Z,-1.55
2023-01-19T09:05:52.963Z,-1.36
2023-01-19T09:08:23.099Z,-1.29
2023-01-19T09:10:52.877Z,-1.21
2023-01-19T09:13:24.459Z,-1.12
2023-01-19T09:15:54.233Z,-1.06
2023-01-19T09:18:25.058Z,-0.78
2023-01-19T09:20:55.590Z,-0.37
2023-01-19T09:23:26.690Z,0.02
2023-01-19T09:25:58.498Z,0.16
2023-01-19T09:28:30.477Z,0.09
2023-01-19T09:31:01.272Z,0.32
2023-01-19T09:33:34.330Z,0.33
2023-01-19T09:36:04.158Z,0.30
2023-01-19T09:38:34.633Z,0.35
2023-01-19T09:41:07.816Z,0.51
2023-01-19T09:43:43.057Z,0.58
2023-01-19T09:46:15.565Z,0.87
2023-01-19T09:48:48.867Z,0.73
2023-01-19T09:51:22.466Z,0.59
2023-01-19T09:53:56.056Z,0.70
2023-01-19T09:56:26.326Z,0.68
2023-01-19T09:58:58.219Z,0.63
2023-01-19T10:01:42.205Z,0.50
2023-01-19T10:04:29.320Z,0.68
2023-01-19T10:07:08.399Z,0.77
2023-01-19T10:09:43.049Z,0.54
2023-01-19T10:12:19.877Z,0.58
2023-01-19T10:14:58.463Z,0.33
2023-01-19T10:17:35.227Z,0.40
2023-01-19T10:20:09.526Z,0.58
2023-01-19T10:22:40.107Z,0.75
2023-01-19T10:25:15.956Z,0.91
2023-01-19T10:27:46.668Z,0.94
2023-01-19T10:30:22.946Z,1.02
2023-01-19T10:32:53.500Z,0.97
2023-01-19T10:35:25.477Z,0.87
2023-01-19T10:37:57.687Z,0.89
2023-01-19T10:40:32.559Z,0.86
2023-01-19T10:43:03.775Z,0.86
2023-01-19T10:45:36.870Z,0.79
2023-01-19T10:48:25.686Z,0.86
2023-01-19T10:51:04.539Z,0.92
2023-01-19T10:53:34.298Z,0.95
2023-01-19T10:56:15.950Z,1.04
2023-01-19T10:58:46.276Z,1.00
2023-01-19T11:01:19.496Z,1.05
2023-01-19T11:03:51.703Z,1.11
2023-01-19T11:06:30.435Z,1.18
2023-01-19T11:09:18.716Z,1.17
2023-01-19T11:11:51.989Z,1.26
2023-01-19T11:14:24.226Z,1.33
2023-01-19T11:16:56.739Z,1.37
2023-01-19T11:19:28.389Z,1.42
2023-01-19T11:22:11.322Z,1.49
2023-01-19T11:24:41.559Z,1.62
2023-01-19T11:27:12.327Z,1.72
2023-01-19T11:29:42.223Z,1.67
2023-01-19T11:32:22.624Z,1.67
2023-01-19T11:34:52.262Z,1.52
2023-01-19T11:37:34.743Z,1.38
2023-01-19T11:40:06.494Z,1.45
2023-01-19T11:42:37.915Z,1.49
2023-01-19T11:45:12.597Z,1.44
2023-01-19T11:47:46.540Z,1.46
2023-01-19T11:50:22.954Z,1.52
2023-01-19T11:52:56.931Z,1.72
2023-01-19T11:55:33.225Z,1.82
2023-01-19T11:58:06.444Z,1.91
2023-01-19T12:00:38.776Z,1.78
2023-01-19T12:03:14.968Z,1.75
2023-01-19T12:05:48.179Z,1.82
2023-01-19T12:08:22.512Z,2.02
2023-01-19T12:10:53.665Z,2.18
2023-01-19T12:13:25.235Z,2.26
2023-01-19T12:15:58.204Z,2.23
2023-01-19T12:18:31.986Z,2.20
2023-01-19T12:21:04.096Z,2.21
2023-01-19T12:23:40.765Z,2.15
2023-01-19T12:26:22.330Z,2.13
2023-01-19T12:28:54.165Z,2.06
2023-01-19T12:31:24.465Z,2.12
2023-01-19T12:33:56.146Z,2.11
2023-01-19T12:36:39.060Z,2.08
2023-01-19T12:39:16.063Z,2.11
2023-01-19T12:41:46.335Z,1.97
2023-01-19T12:44:19.565Z,1.83
2023-01-19T12:46:50.722Z,1.57
2023-01-19T12:49:28.595Z,1.43
2023-01-19T12:52:14.205Z,1.44
2023-01-19T12:54:52.737Z,1.45
2023-01-19T12:57:25.585Z,1.44
2023-01-19T13:00:00.815Z,1.38
2023-01-19T13:02:51.415Z,1.34
2023-01-19T13:05:26.726Z,1.31
2023-01-19T13:08:15.928Z,1.25
2023-01-19T13:11:14.780Z,1.24
2023-01-19T13:13:45.632Z,1.16
2023-01-19T13:16:34.346Z,1.07
2023-01-19T13:19:16.133Z,1.09
2023-01-19T13:21:49.849Z,1.04
2023-01-19T13:24:22.589Z,1.00
2023-01-19T13:26:58.537Z,1.01
2023-01-19T13:29:31.693Z,1.00
2023-01-19T13:32:04.260Z,0.99
2023-01-19T13:34:41.852Z,1.02
2023-01-19T13:37:18.485Z,1.02
2023-01-19T13:39:50.516Z,1.03
2023-01-19T13:42:31.066Z,1.03
2023-01-19T13:45:02.467Z,0.99
2023-01-19T13:47:38.737Z,1.00
2023-01-19T13:50:09.020Z,0.98
2023-01-19T13:52:46.548Z,0.99
2023-01-19T13:55:17.057Z,0.99
2023-01-19T13:57:48.089Z,1.00
2023-01-19T14:00:19.557Z,1.00
2023-01-19T14:02:54.578Z,1.00
2023-01-19T14:05:26.183Z,1.01
2023-01-19T14:08:05.214Z,1.00
2023-01-19T14:10:36.171Z,0.98
2023-01-19T14:13:07.344Z,0.97
2023-01-19T14:15:38.859Z,0.93
2023-01-19T14:18:13.639Z,0.94
2023-01-19T14:20:53.042Z,0.94
2023-01-19T14:23:45.387Z,0.95
2023-01-19T14:26:34.858Z,0.95
2023-01-19T14:29:08.917Z,0.93
2023-01-19T14:31:45.458Z,0.92
2023-01-19T14:34:31.476Z,0.92
2023-01-19T14:37:01.524Z,0.90
2023-01-19T14:39:34.437Z,0.90
2023-01-19T14:42:06.980Z,0.89
2023-01-19T14:44:38.867Z,0.87
2023-01-19T14:47:21.406Z,0.85
2023-01-19T14:49:52.104Z,0.82
2023-01-19T14:52:23.115Z,0.82
2023-01-19T14:54:56.196Z,0.84
2023-01-19T14:57:26.460Z,0.85
2023-01-19T14:59:56.693Z,0.81
2023-01-19T15:02:26.648Z,0.81
2023-01-19T15:04:58.136Z,0.81
2023-01-19T15:07:27.828Z,0.79
2023-01-19T15:10:00.670Z,0.77
2023-01-19T15:12:31.663Z,0.75
2023-01-19T15:15:02.926Z,0.74
2023-01-19T15:17:32.797Z,0.71
2023-01-19T15:20:02.886Z,0.71
2023-01-19T15:22:32.756Z,0.69
2023-01-19T15:25:04.116Z,0.69
2023-01-19T15:27:33.906Z,0.65
2023-01-19T15:30:04.003Z,0.63
2023-01-19T15:32:33.807Z,0.60
2023-01-19T15:35:03.876Z,0.59
2023-01-19T15:37:33.576Z,0.57
2023-01-19T15:40:05.144Z,0.52
2023-01-19T15:42:35.125Z,0.50
2023-01-19T15:45:18.877Z,0.47
2023-01-19T15:47:48.640Z,0.47
2023-01-19T15:50:20.317Z,0.43
2023-01-19T15:52:50.096Z,0.41
2023-01-19T15:55:21.614Z,0.38
2023-01-19T15:57:51.475Z,0.36
2023-01-19T16:00:21.576Z,0.36
2023-01-19T16:02:52.416Z,0.36
2023-01-19T16:05:30.565Z,0.35
2023-01-19T16:08:07.483Z,0.32
2023-01-19T16:10:38.938Z,0.28
2023-01-19T16:13:08.861Z,0.28
2023-01-19T16:15:39.460Z,0.24
2023-01-19T16:18:09.192Z,0.24
2023-01-19T16:20:39.394Z,0.26
2023-01-19T16:23:14.771Z,0.25
2023-01-19T16:25:56.296Z,0.21
2023-01-19T16:28:26.665Z,0.21
2023-01-19T16:30:56.695Z,0.18
2023-01-19T16:33:26.439Z,0.16
2023-01-19T16:35:56.430Z,0.14
2023-01-19T16:38:26.164Z,0.10
2023-01-19T16:40:57.727Z,0.07
2023-01-19T16:43:28.351Z,0.01
2023-01-19T16:46:00.380Z,0.02
2023-01-19T16:48:32.598Z,0.01
2023-01-19T16:51:03.869Z,0.00
2023-01-19T16:53:35.125Z,0.00
2023-01-19T16:56:08.118Z,0.02
2023-01-19T16:58:38.937Z,-0.01
2023-01-19T17:01:09.945Z,0.02
2023-01-19T17:03:40.080Z,0.04
2023-01-19T17:06:10.996Z,0.07
2023-01-19T17:08:41.066Z,0.06
2023-01-19T17:11:13.969Z,0.08
2023-01-19T17:13:43.866Z,0.09
2023-01-19T17:16:13.954Z,0.10
2023-01-19T17:18:43.607Z,0.13
2023-01-19T17:21:17.856Z,0.14
2023-01-19T17:23:48.753Z,0.15
2023-01-19T17:26:20.859Z,0.18
2023-01-19T17:28:50.536Z,0.20
2023-01-19T17:31:21.571Z,0.20
2023-01-19T17:33:51.807Z,0.20
2023-01-19T17:36:22.952Z,0.22
2023-01-19T17:38:53.327Z,0.23
2023-01-19T17:41:25.571Z,0.23
2023-01-19T17:43:55.511Z,0.24
2023-01-19T17:46:26.420Z,0.23
2023-01-19T17:48:56.664Z,0.24
2023-01-19T17:51:27.067Z,0.24
2023-01-19T17:53:57.322Z,0.25
2023-01-19T17:56:30.109Z,0.22
2023-01-19T17:59:02.556Z,0.23
2023-01-19T18:01:41.923Z,0.05
2023-01-19T18:04:14.986Z,0.27
2023-01-19T18:06:45.428Z,0.25
2023-01-19T18:09:15.392Z,0.26
2023-01-19T18:11:47.102Z,0.27
2023-01-19T18:14:16.814Z,0.26
2023-01-19T18:16:46.858Z,0.26
2023-01-19T18:19:16.547Z,0.28
2023-01-19T18:21:47.549Z,0.28
2023-01-19T18:24:17.215Z,0.31
2023-01-19T18:26:48.727Z,0.31
2023-01-19T18:29:19.635Z,0.31
2023-01-19T18:31:49.683Z,0.31
2023-01-19T18:34:19.307Z,0.31
2023-01-19T18:36:49.427Z,0.32
2023-01-19T18:39:19.257Z,0.33
2023-01-19T18:41:50.721Z,0.37
2023-01-19T18:44:20.407Z,0.36
2023-01-19T18:46:50.770Z,0.35
2023-01-19T18:49:20.517Z,0.30
2023-01-19T18:51:51.319Z,0.30
2023-01-19T18:54:21.136Z,0.30
2023-01-19T18:56:52.900Z,0.31
2023-01-19T18:59:22.571Z,0.28
2023-01-19T19:01:52.726Z,0.31
2023-01-19T19:04:22.560Z,0.31
2023-01-19T19:06:52.483Z,0.30
2023-01-19T19:09:22.099Z,0.30
2023-01-19T19:11:53.599Z,0.30
2023-01-19T19:14:23.498Z,0.30
2023-01-19T19:16:53.924Z,0.30
2023-01-19T19:19:23.720Z,0.30
2023-01-19T19:21:53.987Z,0.32
2023-01-19T19:24:24.051Z,0.35
2023-01-19T19:26:55.562Z,0.35
2023-01-19T19:29:25.294Z,0.32
2023-01-19T19:31:56.912Z,0.31
2023-01-19T19:34:26.655Z,0.32
2023-01-19T19:36:56.496Z,0.33
2023-01-19T19:39:26.680Z,0.32
2023-01-19T19:41:58.109Z,0.32
2023-01-19T19:44:27.999Z,0.31
2023-01-19T19:46:59.232Z,0.33
2023-01-19T19:49:28.942Z,0.36
2023-01-19T19:51:59.191Z,0.38
2023-01-19T19:54:28.968Z,0.37
2023-01-19T19:57:02.673Z,0.38
2023-01-19T19:59:32.271Z,0.39
2023-01-19T20:02:02.266Z,0.40
2023-01-19T20:04:32.169Z,0.41
2023-01-19T20:07:02.227Z,0.40
2023-01-19T20:09:33.064Z,0.42
2023-01-19T20:12:06.005Z,0.39
2023-01-19T20:14:36.909Z,0.40
2023-01-19T20:17:06.841Z,0.39
2023-01-19T20:19:36.352Z,0.37
2023-01-19T20:22:06.255Z,0.36
2023-01-19T20:24:35.844Z,0.25
2023-01-19T20:27:07.347Z,0.30
2023-01-19T20:29:37.252Z,0.24
2023-01-19T20:32:08.311Z,0.22
2023-01-19T20:34:38.899Z,0.20
2023-01-19T20:37:09.759Z,0.20
2023-01-19T20:39:39.547Z,0.19
2023-01-19T20:42:11.894Z,0.09
2023-01-19T20:44:41.989Z,0.08
2023-01-19T20:47:12.296Z,0.06
2023-01-19T20:49:42.604Z,0.02
2023-01-19T20:52:12.554Z,0.02
2023-01-19T20:54:42.338Z,0.01
2023-01-19T20:57:14.461Z,0.02
2023-01-19T20:59:45.055Z,0.11
2023-01-19T21:02:17.100Z,0.06
2023-01-19T21:04:46.761Z,0.01
2023-01-19T21:07:16.682Z,0.02
2023-01-19T21:09:46.362Z,0.02
2023-01-19T21:12:23.147Z,0.09
2023-01-19T21:14:53.861Z,0.11
2023-01-19T21:17:23.967Z,0.12
2023-01-19T21:19:54.376Z,0.16
2023-01-19T21:22:27.254Z,0.17
2023-01-19T21:24:58.136Z,0.19
2023-01-19T21:27:30.364Z,0.24
2023-01-19T21:30:03.560Z,0.35
2023-01-19T21:32:37.426Z,0.34
2023-01-19T21:35:13.217Z,0.40
2023-01-19T21:37:43.882Z,0.38
2023-01-19T21:40:15.708Z,0.43
2023-01-19T21:42:48.872Z,0.39
2023-01-19T21:45:19.663Z,0.34
2023-01-19T21:47:51.962Z,0.34
2023-01-19T21:50:24.092Z,0.38
2023-01-19T21:52:55.722Z,0.39
2023-01-19T21:55:25.600Z,0.46
2023-01-19T21:57:59.292Z,0.42
2023-01-19T22:00:31.373Z,0.43
2023-01-19T22:03:04.489Z,0.36
2023-01-19T22:05:36.905Z,0.34
2023-01-19T22:08:07.600Z,0.31
2023-01-19T22:10:38.664Z,0.29
2023-01-19T22:13:10.951Z,0.22
2023-01-19T22:15:41.252Z,0.17
2023-01-19T22:18:12.069Z,0.16
2023-01-19T22:20:41.980Z,0.17
2023-01-19T22:23:12.112Z,0.16
2023-01-19T22:25:41.704Z,0.16
2023-01-19T22:28:13.258Z,0.05
2023-01-19T22:30:43.012Z,-0.02
2023-01-19T22:33:12.990Z,-0.06
2023-01-19T22:35:42.613Z,-0.11
2023-01-19T22:38:12.890Z,-0.14
2023-01-19T22:40:42.579Z,-0.12
2023-01-19T22:43:14.429Z,-0.11
2023-01-19T22:45:44.505Z,-0.09
2023-01-19T22:48:14.546Z,-0.08
2023-01-19T22:50:44.204Z,-0.08
2023-01-19T22:53:14.289Z,-0.12
2023-01-19T22:55:43.919Z,-0.11
2023-01-19T22:58:15.628Z,-0.09
2023-01-19T23:00:45.291Z,-0.13
2023-01-19T23:03:15.448Z,-0.16
2023-01-19T23:05:45.279Z,-0.19
2023-01-19T23:08:15.459Z,-0.22
2023-01-19T23:10:45.227Z,-0.19
2023-01-19T23:13:16.660Z,-0.30
2023-01-19T23:15:46.402Z,-0.45
2023-01-19T23:18:16.599Z,-0.53
2023-01-19T23:20:46.337Z,-0.69
2023-01-19T23:23:16.457Z,-0.84
2023-01-19T23:25:46.140Z,-0.92
2023-01-19T23:28:17.648Z,-1.03
2023-01-19T23:30:47.444Z,-1.12
2023-01-19T23:33:17.401Z,-1.21
2023-01-19T23:35:47.082Z,-1.31
2023-01-19T23:38:17.255Z,-1.36
2023-01-19T23:40:46.829Z,-1.42
2023-01-19T23:43:18.270Z,-1.46
2023-01-19T23:45:47.896Z,-1.47
2023-01-19T23:48:18.127Z,-1.56
2023-01-19T23:50:47.827Z,-1.60
2023-01-19T23:53:17.897Z,-1.63
2023-01-19T23:55:47.589Z,-1.68
2023-01-19T23:58:18.927Z,-1.71
